sensor_id;sensor_type;location;lat;lon;timestamp;pressure;altitude;pressure_sealevel;temperature;humidity
80414;BME280;69758;52.580;13.068;2024-03-22T00:00:00;101901.29;;;14.43;33.30
80414;BME280;69758;52.580;13.068;2024-03-22T00:02:25;101893.53;;;14.29;33.15
80414;BME280;69758;52.580;13.068;2024-03-22T00:04:51;101893.49;;;14.61;33.05
80414;BME280;69758;52.580;13.068;2024-03-22T00:07:16;101892.95;;;14.89;33.00
80414;BME280;69758;52.580;13.068;2024-03-22T00:09:41;101891.23;;;14.67;32.96
80414;BME280;69758;52.580;13.068;2024-03-22T00:12:07;101885.11;;;14.83;33.10
80414;BME280;69758;52.580;13.068;2024-03-22T00:14:33;101882.11;;;14.65;33.14
80414;BME280;69758;52.580;13.068;2024-03-22T00:16:58;101877.41;;;14.93;33.05
80414;BME280;69758;52.580;13.068;2024-03-22T00:19:24;101874.58;;;14.46;33.07
80414;BME280;69758;52.580;13.068;2024-03-22T00:21:49;101870.93;;;14.68;33.08
80414;BME280;69758;52.580;13.068;2024-03-22T00:24:15;101869.16;;;14.88;33.14
80414;BME280;69758;52.580;13.068;2024-03-22T00:26:40;101866.98;;;15.06;33.23
80414;BME280;69758;52.580;13.068;2024-03-22T00:29:05;101863.50;;;14.89;33.17
80414;BME280;69758;52.580;13.068;2024-03-22T00:31:31;101859.49;;;15.11;33.25
80414;BME280;69758;52.580;13.068;2024-03-22T00:33:57;101856.40;;;14.78;33.34
80414;BME280;69758;52.580;13.068;2024-03-22T00:36:23;101853.72;;;14.96;33.50
80414;BME280;69758;52.580;13.068;2024-03-22T00:38:47;101851.32;;;14.75;33.50
80414;BME280;69758;52.580;13.068;2024-03-22T00:41:13;101851.16;;;14.88;33.30
80414;BME280;69758;52.580;13.068;2024-03-22T00:43:38;101847.67;;;14.85;33.36
80414;BME280;69758;52.580;13.068;2024-03-22T00:46:04;101843.92;;;14.59;33.44
80414;BME280;69758;52.580;13.068;2024-03-22T00:48:30;101844.16;;;14.87;33.40
80414;BME280;69758;52.580;13.068;2024-03-22T00:50:55;101839.91;;;14.82;33.34
80414;BME280;69758;52.580;13.068;2024-03-22T00:53:22;101837.14;;;14.62;33.30
80414;BME280;69758;52.580;13.068;2024-03-22T00:55:46;101835.85;;;14.60;33.24
80414;BME280;69758;52.580;13.068;2024-03-22T00:58:12;101829.63;;;14.84;33.26
80414;BME280;69758;52.580;13.068;2024-03-22T01:00:37;101825.24;;;14.52;33.36
80414;BME280;69758;52.580;13.068;2024-03-22T01:03:03;101819.70;;;14.92;33.50
80414;BME280;69758;52.580;13.068;2024-03-22T01:05:28;101818.77;;;14.61;33.65
80414;BME280;69758;52.580;13.068;2024-03-22T01:07:53;101816.97;;;14.81;33.69
80414;BME280;69758;52.580;13.068;2024-03-22T01:10:19;101818.95;;;14.54;33.80
80414;BME280;69758;52.580;13.068;2024-03-22T01:12:45;101819.62;;;14.52;34.03
80414;BME280;69758;52.580;13.068;2024-03-22T01:15:11;101817.32;;;14.73;34.21
80414;BME280;69758;52.580;13.068;2024-03-22T01:17:36;101809.33;;;14.53;34.38
80414;BME280;69758;52.580;13.068;2024-03-22T01:20:03;101808.91;;;14.54;34.38
80414;BME280;69758;52.580;13.068;2024-03-22T01:22:27;101806.89;;;14.35;34.26
80414;BME280;69758;52.580;13.068;2024-03-22T01:24:52;101804.29;;;14.61;34.21
80414;BME280;69758;52.580;13.068;2024-03-22T01:27:18;101804.80;;;14.84;34.36
80414;BME280;69758;52.580;13.068;2024-03-22T01:29:43;101801.49;;;14.64;34.43
80414;BME280;69758;52.580;13.068;2024-03-22T01:32:09;101797.48;;;14.68;34.37
80414;BME280;69758;52.580;13.068;2024-03-22T01:34:34;101794.78;;;14.65;34.36
80414;BME280;69758;52.580;13.068;2024-03-22T01:37:00;101792.08;;;14.42;34.40
80414;BME280;69758;52.580;13.068;2024-03-22T01:39:25;101789.43;;;14.93;34.32
80414;BME280;69758;52.580;13.068;2024-03-22T01:41:51;101785.45;;;14.40;34.59
80414;BME280;69758;52.580;13.068;2024-03-22T01:44:16;101787.09;;;14.85;34.56
80414;BME280;69758;52.580;13.068;2024-03-22T01:46:42;101791.24;;;14.56;34.67
80414;BME280;69758;52.580;13.068;2024-03-22T01:49:09;101788.37;;;14.80;34.68
80414;BME280;69758;52.580;13.068;2024-03-22T01:51:33;101783.84;;;14.88;34.62
80414;BME280;69758;52.580;13.068;2024-03-22T01:54:01;101784.66;;;14.35;34.68
80414;BME280;69758;52.580;13.068;2024-03-22T01:56:24;101776.58;;;14.69;34.58
80414;BME280;69758;52.580;13.068;2024-03-22T01:58:49;101776.22;;;14.95;34.68
80414;BME280;69758;52.580;13.068;2024-03-22T02:01:15;101774.41;;;14.69;34.68
80414;BME280;69758;52.580;13.068;2024-03-22T02:03:40;101766.20;;;14.49;34.58
80414;BME280;69758;52.580;13.068;2024-03-22T02:06:06;101767.56;;;14.81;34.47
80414;BME280;69758;52.580;13.068;2024-03-22T02:08:32;101767.60;;;14.88;34.35
80414;BME280;69758;52.580;13.068;2024-03-22T02:10:57;101759.67;;;14.89;34.24
80414;BME280;69758;52.580;13.068;2024-03-22T02:13:23;101752.28;;;14.64;34.19
80414;BME280;69758;52.580;13.068;2024-03-22T02:15:47;101745.57;;;14.66;34.11
80414;BME280;69758;52.580;13.068;2024-03-22T02:18:13;101744.92;;;14.83;34.14
80414;BME280;69758;52.580;13.068;2024-03-22T02:20:38;101744.66;;;14.76;34.21
80414;BME280;69758;52.580;13.068;2024-03-22T02:23:03;101739.77;;;14.63;34.18
80414;BME280;69758;52.580;13.068;2024-03-22T02:25:28;101732.45;;;14.23;34.08
80414;BME280;69758;52.580;13.068;2024-03-22T02:27:54;101729.33;;;14.75;34.00
80414;BME280;69758;52.580;13.068;2024-03-22T02:30:19;101727.08;;;14.81;33.95
80414;BME280;69758;52.580;13.068;2024-03-22T02:32:45;101721.38;;;14.78;33.95
80414;BME280;69758;52.580;13.068;2024-03-22T02:35:10;101721.18;;;14.73;34.07
80414;BME280;69758;52.580;13.068;2024-03-22T02:37:36;101721.36;;;14.70;34.12
80414;BME280;69758;52.580;13.068;2024-03-22T02:40:02;101722.80;;;14.75;33.96
80414;BME280;69758;52.580;13.068;2024-03-22T02:42:26;101722.49;;;14.16;34.04
80414;BME280;69758;52.580;13.068;2024-03-22T02:44:53;101715.45;;;14.72;34.16
80414;BME280;69758;52.580;13.068;2024-03-22T02:47:18;101709.73;;;14.49;34.15
80414;BME280;69758;52.580;13.068;2024-03-22T02:49:43;101707.68;;;14.48;34.22
80414;BME280;69758;52.580;13.068;2024-03-22T02:52:08;101701.59;;;14.72;34.23
80414;BME280;69758;52.580;13.068;2024-03-22T02:54:33;101696.20;;;14.54;34.42
80414;BME280;69758;52.580;13.068;2024-03-22T02:56:59;101688.12;;;14.61;34.35
80414;BME280;69758;52.580;13.068;2024-03-22T02:59:25;101684.17;;;14.46;34.14
80414;BME280;69758;52.580;13.068;2024-03-22T03:01:49;101680.08;;;14.42;34.18
80414;BME280;69758;52.580;13.068;2024-03-22T03:04:15;101675.81;;;15.00;34.03
80414;BME280;69758;52.580;13.068;2024-03-22T03:06:41;101672.83;;;14.68;34.08
80414;BME280;69758;52.580;13.068;2024-03-22T03:09:07;101674.93;;;14.59;34.19
80414;BME280;69758;52.580;13.068;2024-03-22T03:11:33;101677.79;;;14.24;34.52
80414;BME280;69758;52.580;13.068;2024-03-22T03:13:58;101672.34;;;14.45;34.56
80414;BME280;69758;52.580;13.068;2024-03-22T03:16:24;101662.54;;;14.07;34.64
80414;BME280;69758;52.580;13.068;2024-03-22T03:18:49;101650.66;;;14.39;34.57
80414;BME280;69758;52.580;13.068;2024-03-22T03:21:14;101641.53;;;14.42;34.41
80414;BME280;69758;52.580;13.068;2024-03-22T03:23:40;101629.21;;;14.19;34.37
80414;BME280;69758;52.580;13.068;2024-03-22T03:26:05;101629.30;;;14.43;34.32
80414;BME280;69758;52.580;13.068;2024-03-22T03:28:30;101629.48;;;14.35;34.15
80414;BME280;69758;52.580;13.068;2024-03-22T03:30:56;101630.67;;;14.62;34.08
80414;BME280;69758;52.580;13.068;2024-03-22T03:33:21;101622.55;;;14.49;33.89
80414;BME280;69758;52.580;13.068;2024-03-22T03:35:47;101620.60;;;14.57;33.77
80414;BME280;69758;52.580;13.068;2024-03-22T03:38:12;101619.21;;;14.77;33.77
80414;BME280;69758;52.580;13.068;2024-03-22T03:40:38;101614.62;;;14.36;33.94
80414;BME280;69758;52.580;13.068;2024-03-22T03:43:04;101601.49;;;14.84;33.96
80414;BME280;69758;52.580;13.068;2024-03-22T03:45:29;101596.51;;;14.37;33.93
80414;BME280;69758;52.580;13.068;2024-03-22T03:47:55;101593.84;;;14.35;33.90
80414;BME280;69758;52.580;13.068;2024-03-22T03:50:20;101590.24;;;14.53;33.98
80414;BME280;69758;52.580;13.068;2024-03-22T03:52:45;101586.85;;;14.75;34.00
80414;BME280;69758;52.580;13.068;2024-03-22T03:55:10;101583.32;;;14.51;34.30
80414;BME280;69758;52.580;13.068;2024-03-22T03:57:36;101579.42;;;14.18;34.11
80414;BME280;69758;52.580;13.068;2024-03-22T04:00:02;101578.41;;;14.56;33.89
80414;BME280;69758;52.580;13.068;2024-03-22T04:02:27;101573.85;;;14.45;33.69
80414;BME280;69758;52.580;13.068;2024-03-22T04:04:53;101572.15;;;14.98;33.58
80414;BME280;69758;52.580;13.068;2024-03-22T04:07:18;101569.98;;;14.80;33.50
80414;BME280;69758;52.580;13.068;2024-03-22T04:09:43;101568.41;;;14.68;33.34
80414;BME280;69758;52.580;13.068;2024-03-22T04:12:09;101562.94;;;14.94;33.26
80414;BME280;69758;52.580;13.068;2024-03-22T04:14:34;101562.32;;;14.94;33.30
80414;BME280;69758;52.580;13.068;2024-03-22T04:17:00;101561.47;;;14.67;33.29
80414;BME280;69758;52.580;13.068;2024-03-22T04:19:26;101561.58;;;14.47;33.29
80414;BME280;69758;52.580;13.068;2024-03-22T04:21:51;101561.45;;;14.76;33.28
80414;BME280;69758;52.580;13.068;2024-03-22T04:24:16;101556.80;;;14.96;33.26
80414;BME280;69758;52.580;13.068;2024-03-22T04:26:42;101561.91;;;14.93;33.27
80414;BME280;69758;52.580;13.068;2024-03-22T04:29:07;101559.91;;;14.67;33.26
80414;BME280;69758;52.580;13.068;2024-03-22T04:31:33;101555.15;;;14.74;33.15
80414;BME280;69758;52.580;13.068;2024-03-22T04:33:59;101547.09;;;14.85;32.97
80414;BME280;69758;52.580;13.068;2024-03-22T04:36:24;101534.12;;;14.41;32.82
80414;BME280;69758;52.580;13.068;2024-03-22T04:38:49;101530.87;;;14.93;32.71
80414;BME280;69758;52.580;13.068;2024-03-22T04:41:15;101532.68;;;15.14;32.77
80414;BME280;69758;52.580;13.068;2024-03-22T04:43:40;101533.02;;;14.93;32.77
80414;BME280;69758;52.580;13.068;2024-03-22T04:46:06;101527.59;;;14.91;32.84
80414;BME280;69758;52.580;13.068;2024-03-22T04:48:31;101526.13;;;14.67;32.83
80414;BME280;69758;52.580;13.068;2024-03-22T04:50:57;101525.49;;;14.98;32.72
80414;BME280;69758;52.580;13.068;2024-03-22T04:53:23;101523.93;;;14.70;32.74
80414;BME280;69758;52.580;13.068;2024-03-22T04:55:49;101524.95;;;14.97;32.73
80414;BME280;69758;52.580;13.068;2024-03-22T04:58:14;101528.60;;;14.97;32.76
80414;BME280;69758;52.580;13.068;2024-03-22T05:00:39;101525.92;;;14.94;32.85
80414;BME280;69758;52.580;13.068;2024-03-22T05:03:04;101524.53;;;14.98;32.81
80414;BME280;69758;52.580;13.068;2024-03-22T05:05:30;101526.00;;;14.51;32.85
80414;BME280;69758;52.580;13.068;2024-03-22T05:07:55;101519.89;;;15.00;32.83
80414;BME280;69758;52.580;13.068;2024-03-22T05:10:21;101517.26;;;14.97;32.84
80414;BME280;69758;52.580;13.068;2024-03-22T05:12:47;101517.91;;;15.11;32.97
80414;BME280;69758;52.580;13.068;2024-03-22T05:15:12;101514.06;;;14.77;33.09
80414;BME280;69758;52.580;13.068;2024-03-22T05:17:38;101508.78;;;14.77;33.07
80414;BME280;69758;52.580;13.068;2024-03-22T05:20:04;101506.28;;;14.89;32.94
80414;BME280;69758;52.580;13.068;2024-03-22T05:22:28;101502.70;;;14.99;32.83
80414;BME280;69758;52.580;13.068;2024-03-22T05:24:54;101499.12;;;14.76;32.82
80414;BME280;69758;52.580;13.068;2024-03-22T05:27:19;101495.08;;;15.07;32.68
80414;BME280;69758;52.580;13.068;2024-03-22T05:29:44;101494.61;;;15.06;32.66
80414;BME280;69758;52.580;13.068;2024-03-22T05:32:09;101492.91;;;15.11;32.65
80414;BME280;69758;52.580;13.068;2024-03-22T05:34:35;101487.73;;;15.17;32.58
80414;BME280;69758;52.580;13.068;2024-03-22T05:37:00;101482.22;;;15.16;32.61
80414;BME280;69758;52.580;13.068;2024-03-22T05:39:26;101477.39;;;14.74;32.54
80414;BME280;69758;52.580;13.068;2024-03-22T05:41:51;101476.60;;;15.27;32.52
80414;BME280;69758;52.580;13.068;2024-03-22T05:44:16;101472.67;;;15.35;32.40
80414;BME280;69758;52.580;13.068;2024-03-22T05:46:41;101464.95;;;15.08;32.45
80414;BME280;69758;52.580;13.068;2024-03-22T05:49:07;101463.86;;;15.35;32.45
80414;BME280;69758;52.580;13.068;2024-03-22T05:51:32;101459.38;;;15.47;32.36
80414;BME280;69758;52.580;13.068;2024-03-22T05:53:57;101455.05;;;15.28;32.30
80414;BME280;69758;52.580;13.068;2024-03-22T05:56:23;101452.49;;;15.11;32.20
80414;BME280;69758;52.580;13.068;2024-03-22T05:58:49;101452.53;;;15.36;32.18
80414;BME280;69758;52.580;13.068;2024-03-22T06:01:14;101453.12;;;15.47;32.29
80414;BME280;69758;52.580;13.068;2024-03-22T06:03:39;101447.10;;;15.20;32.33
80414;BME280;69758;52.580;13.068;2024-03-22T06:06:05;101442.67;;;15.41;32.39
80414;BME280;69758;52.580;13.068;2024-03-22T06:08:31;101437.32;;;14.99;32.34
80414;BME280;69758;52.580;13.068;2024-03-22T06:10:57;101433.36;;;15.60;32.10
80414;BME280;69758;52.580;13.068;2024-03-22T06:13:23;101430.68;;;15.12;32.58
80414;BME280;69758;52.580;13.068;2024-03-22T06:15:49;101426.01;;;15.10;32.66
80414;BME280;69758;52.580;13.068;2024-03-22T06:18:13;101426.61;;;15.10;32.70
80414;BME280;69758;52.580;13.068;2024-03-22T06:20:39;101427.76;;;15.09;32.71
80414;BME280;69758;52.580;13.068;2024-03-22T06:23:04;101427.90;;;15.10;32.61
80414;BME280;69758;52.580;13.068;2024-03-22T06:25:30;101421.82;;;14.70;32.54
80414;BME280;69758;52.580;13.068;2024-03-22T06:27:55;101418.48;;;15.07;32.39
80414;BME280;69758;52.580;13.068;2024-03-22T06:30:21;101415.08;;;15.35;32.31
80414;BME280;69758;52.580;13.068;2024-03-22T06:32:47;101412.01;;;15.31;32.36
80414;BME280;69758;52.580;13.068;2024-03-22T06:35:12;101412.58;;;15.39;32.28
80414;BME280;69758;52.580;13.068;2024-03-22T06:37:38;101413.48;;;15.36;32.34
80414;BME280;69758;52.580;13.068;2024-03-22T06:40:04;101412.44;;;15.17;32.29
80414;BME280;69758;52.580;13.068;2024-03-22T06:42:29;101410.67;;;14.86;32.32
80414;BME280;69758;52.580;13.068;2024-03-22T06:44:55;101412.00;;;14.92;32.30
80414;BME280;69758;52.580;13.068;2024-03-22T06:47:20;101408.21;;;15.34;32.31
80414;BME280;69758;52.580;13.068;2024-03-22T06:49:45;101407.28;;;15.28;32.33
80414;BME280;69758;52.580;13.068;2024-03-22T06:52:10;101403.57;;;15.10;32.31
80414;BME280;69758;52.580;13.068;2024-03-22T06:54:36;101399.14;;;15.40;32.24
80414;BME280;69758;52.580;13.068;2024-03-22T06:57:01;101398.98;;;15.44;32.10
80414;BME280;69758;52.580;13.068;2024-03-22T06:59:27;101397.55;;;14.87;32.23
80414;BME280;69758;52.580;13.068;2024-03-22T07:01:52;101393.41;;;15.42;32.18
80414;BME280;69758;52.580;13.068;2024-03-22T07:04:17;101392.91;;;15.15;32.25
80414;BME280;69758;52.580;13.068;2024-03-22T07:06:43;101393.05;;;15.10;32.28
80414;BME280;69758;52.580;13.068;2024-03-22T07:09:09;101392.32;;;15.55;32.10
80414;BME280;69758;52.580;13.068;2024-03-22T07:11:34;101393.55;;;15.13;32.09
80414;BME280;69758;52.580;13.068;2024-03-22T07:14:00;101394.67;;;15.57;32.16
80414;BME280;69758;52.580;13.068;2024-03-22T07:16:25;101395.68;;;15.18;32.15
80414;BME280;69758;52.580;13.068;2024-03-22T07:18:52;101392.21;;;15.14;32.19
80414;BME280;69758;52.580;13.068;2024-03-22T07:21:16;101391.04;;;15.70;32.26
80414;BME280;69758;52.580;13.068;2024-03-22T07:23:42;101394.84;;;15.37;32.28
80414;BME280;69758;52.580;13.068;2024-03-22T07:26:07;101391.82;;;15.27;32.70
80414;BME280;69758;52.580;13.068;2024-03-22T07:28:33;101397.20;;;15.25;32.49
80414;BME280;69758;52.580;13.068;2024-03-22T07:30:58;101396.52;;;15.82;32.42
80414;BME280;69758;52.580;13.068;2024-03-22T07:33:24;101389.11;;;15.25;32.32
80414;BME280;69758;52.580;13.068;2024-03-22T07:35:49;101386.09;;;15.65;32.30
80414;BME280;69758;52.580;13.068;2024-03-22T07:38:15;101384.10;;;15.59;32.15
80414;BME280;69758;52.580;13.068;2024-03-22T07:40:41;101384.82;;;15.35;32.05
80414;BME280;69758;52.580;13.068;2024-03-22T07:43:06;101380.79;;;15.88;32.00
80414;BME280;69758;52.580;13.068;2024-03-22T07:45:32;101376.62;;;15.75;32.04
80414;BME280;69758;52.580;13.068;2024-03-22T07:47:57;101373.47;;;15.77;32.10
80414;BME280;69758;52.580;13.068;2024-03-22T07:50:22;101368.75;;;15.65;32.00
80414;BME280;69758;52.580;13.068;2024-03-22T07:52:48;101364.95;;;15.92;31.97
80414;BME280;69758;52.580;13.068;2024-03-22T07:55:13;101363.72;;;15.89;32.06
80414;BME280;69758;52.580;13.068;2024-03-22T07:57:38;101364.79;;;16.03;31.99
80414;BME280;69758;52.580;13.068;2024-03-22T08:00:05;101363.45;;;16.16;31.81
80414;BME280;69758;52.580;13.068;2024-03-22T08:02:29;101360.71;;;15.68;31.88
80414;BME280;69758;52.580;13.068;2024-03-22T08:04:55;101363.92;;;15.92;31.98
80414;BME280;69758;52.580;13.068;2024-03-22T08:07:21;101361.49;;;16.07;31.91
80414;BME280;69758;52.580;13.068;2024-03-22T08:09:46;101358.81;;;16.04;31.83
80414;BME280;69758;52.580;13.068;2024-03-22T08:12:12;101361.17;;;16.16;31.77
80414;BME280;69758;52.580;13.068;2024-03-22T08:14:37;101357.34;;;16.14;31.81
80414;BME280;69758;52.580;13.068;2024-03-22T08:17:02;101359.44;;;16.05;31.95
80414;BME280;69758;52.580;13.068;2024-03-22T08:19:27;101352.31;;;15.66;32.10
80414;BME280;69758;52.580;13.068;2024-03-22T08:21:52;101344.07;;;16.11;31.97
80414;BME280;69758;52.580;13.068;2024-03-22T08:24:18;101336.95;;;16.32;31.77
80414;BME280;69758;52.580;13.068;2024-03-22T08:26:43;101330.27;;;16.16;31.72
80414;BME280;69758;52.580;13.068;2024-03-22T08:29:08;101327.85;;;16.17;31.92
80414;BME280;69758;52.580;13.068;2024-03-22T08:31:33;101322.43;;;15.89;32.18
80414;BME280;69758;52.580;13.068;2024-03-22T08:33:59;101315.96;;;16.06;32.10
80414;BME280;69758;52.580;13.068;2024-03-22T08:36:24;101315.65;;;15.47;32.24
80414;BME280;69758;52.580;13.068;2024-03-22T08:38:50;101313.81;;;16.04;32.10
80414;BME280;69758;52.580;13.068;2024-03-22T08:41:16;101306.76;;;16.38;31.97
80414;BME280;69758;52.580;13.068;2024-03-22T08:43:41;101305.70;;;16.19;32.12
80414;BME280;69758;52.580;13.068;2024-03-22T08:46:06;101303.89;;;15.91;32.21
80414;BME280;69758;52.580;13.068;2024-03-22T08:48:32;101298.11;;;16.04;32.06
80414;BME280;69758;52.580;13.068;2024-03-22T08:50:58;101291.02;;;16.39;32.10
80414;BME280;69758;52.580;13.068;2024-03-22T08:53:24;101292.10;;;15.99;31.90
80414;BME280;69758;52.580;13.068;2024-03-22T08:55:49;101287.62;;;16.41;31.84
80414;BME280;69758;52.580;13.068;2024-03-22T08:58:15;101288.44;;;16.99;31.61
80414;BME280;69758;52.580;13.068;2024-03-22T09:00:39;101286.20;;;16.71;31.30
80414;BME280;69758;52.580;13.068;2024-03-22T09:03:04;101279.51;;;16.84;31.68
80414;BME280;69758;52.580;13.068;2024-03-22T09:05:29;101272.74;;;16.49;31.61
80414;BME280;69758;52.580;13.068;2024-03-22T09:07:54;101266.96;;;16.90;31.56
80414;BME280;69758;52.580;13.068;2024-03-22T09:10:21;101261.00;;;16.33;31.59
80414;BME280;69758;52.580;13.068;2024-03-22T09:12:45;101265.69;;;16.83;31.65
80414;BME280;69758;52.580;13.068;2024-03-22T09:15:11;101267.80;;;17.01;31.56
80414;BME280;69758;52.580;13.068;2024-03-22T09:17:36;101261.23;;;16.51;31.93
80414;BME280;69758;52.580;13.068;2024-03-22T09:20:01;101264.50;;;16.61;31.78
80414;BME280;69758;52.580;13.068;2024-03-22T09:22:27;101263.12;;;16.77;31.64
80414;BME280;69758;52.580;13.068;2024-03-22T09:24:52;101261.79;;;17.16;31.44
80414;BME280;69758;52.580;13.068;2024-03-22T09:27:17;101256.85;;;17.25;31.37
80414;BME280;69758;52.580;13.068;2024-03-22T09:29:43;101245.92;;;16.64;31.55
80414;BME280;69758;52.580;13.068;2024-03-22T09:32:09;101252.06;;;16.59;31.78
80414;BME280;69758;52.580;13.068;2024-03-22T09:34:33;101249.57;;;16.62;31.59
80414;BME280;69758;52.580;13.068;2024-03-22T09:36:59;101251.41;;;16.98;31.29
80414;BME280;69758;52.580;13.068;2024-03-22T09:39:25;101252.51;;;16.65;31.40
80414;BME280;69758;52.580;13.068;2024-03-22T09:41:51;101252.25;;;17.33;31.25
80414;BME280;69758;52.580;13.068;2024-03-22T09:44:18;101250.95;;;17.56;31.08
80414;BME280;69758;52.580;13.068;2024-03-22T09:46:42;101249.24;;;17.21;31.11
80414;BME280;69758;52.580;13.068;2024-03-22T09:49:08;101239.44;;;17.59;30.97
80414;BME280;69758;52.580;13.068;2024-03-22T09:51:34;101240.63;;;17.99;30.75
80414;BME280;69758;52.580;13.068;2024-03-22T09:53:58;101238.11;;;17.71;31.10
80414;BME280;69758;52.580;13.068;2024-03-22T09:56:25;101235.03;;;17.33;31.04
80414;BME280;69758;52.580;13.068;2024-03-22T09:58:49;101231.97;;;17.27;31.57
80414;BME280;69758;52.580;13.068;2024-03-22T10:01:15;101223.56;;;17.62;31.38
80414;BME280;69758;52.580;13.068;2024-03-22T10:03:40;101221.55;;;17.66;31.32
80414;BME280;69758;52.580;13.068;2024-03-22T10:06:06;101221.60;;;17.81;31.15
80414;BME280;69758;52.580;13.068;2024-03-22T10:08:31;101210.35;;;17.36;31.18
80414;BME280;69758;52.580;13.068;2024-03-22T10:10:57;101213.21;;;17.92;31.00
80414;BME280;69758;52.580;13.068;2024-03-22T10:13:24;101213.68;;;17.91;31.04
80414;BME280;69758;52.580;13.068;2024-03-22T10:15:49;101205.98;;;17.58;31.11
80414;BME280;69758;52.580;13.068;2024-03-22T10:18:14;101204.35;;;18.09;30.86
80414;BME280;69758;52.580;13.068;2024-03-22T10:20:40;101201.25;;;17.98;31.21
80414;BME280;69758;52.580;13.068;2024-03-22T10:23:07;101199.58;;;17.61;31.26
80414;BME280;69758;52.580;13.068;2024-03-22T10:25:30;101197.48;;;17.85;31.30
80414;BME280;69758;52.580;13.068;2024-03-22T10:27:57;101197.62;;;17.49;31.59
80414;BME280;69758;52.580;13.068;2024-03-22T10:30:22;101196.01;;;17.79;31.32
80414;BME280;69758;52.580;13.068;2024-03-22T10:32:49;101200.21;;;17.90;31.10
80414;BME280;69758;52.580;13.068;2024-03-22T10:35:14;101190.18;;;18.28;30.79
80414;BME280;69758;52.580;13.068;2024-03-22T10:37:39;101188.84;;;18.39;30.47
80414;BME280;69758;52.580;13.068;2024-03-22T10:40:06;101187.39;;;18.29;30.41
80414;BME280;69758;52.580;13.068;2024-03-22T10:42:30;101184.09;;;17.86;30.58
80414;BME280;69758;52.580;13.068;2024-03-22T10:44:55;101181.51;;;18.53;30.20
80414;BME280;69758;52.580;13.068;2024-03-22T10:47:24;101183.08;;;18.52;30.13
80414;BME280;69758;52.580;13.068;2024-03-22T10:49:49;101188.83;;;18.50;29.93
80414;BME280;69758;52.580;13.068;2024-03-22T10:52:12;101185.96;;;18.47;29.71
80414;BME280;69758;52.580;13.068;2024-03-22T10:54:40;101180.88;;;18.48;30.10
80414;BME280;69758;52.580;13.068;2024-03-22T10:57:05;101177.10;;;17.88;30.36
80414;BME280;69758;52.580;13.068;2024-03-22T10:59:34;101172.95;;;18.16;30.33
80414;BME280;69758;52.580;13.068;2024-03-22T11:02:02;101166.68;;;18.50;29.99
80414;BME280;69758;52.580;13.068;2024-03-22T11:04:20;101171.28;;;18.39;30.07
80414;BME280;69758;52.580;13.068;2024-03-22T11:06:47;101175.80;;;18.41;30.04
80414;BME280;69758;52.580;13.068;2024-03-22T11:09:11;101176.44;;;18.64;30.17
80414;BME280;69758;52.580;13.068;2024-03-22T11:11:36;101174.62;;;18.26;30.26
80414;BME280;69758;52.580;13.068;2024-03-22T11:14:02;101176.56;;;18.54;30.00
80414;BME280;69758;52.580;13.068;2024-03-22T11:16:27;101177.19;;;18.40;29.98
80414;BME280;69758;52.580;13.068;2024-03-22T11:18:52;101177.65;;;18.59;30.03
80414;BME280;69758;52.580;13.068;2024-03-22T11:21:18;101177.62;;;18.47;30.25
80414;BME280;69758;52.580;13.068;2024-03-22T11:23:45;101172.16;;;18.33;30.49
80414;BME280;69758;52.580;13.068;2024-03-22T11:26:09;101164.70;;;18.13;30.57
80414;BME280;69758;52.580;13.068;2024-03-22T11:28:34;101158.78;;;18.52;30.44
80414;BME280;69758;52.580;13.068;2024-03-22T11:31:09;101142.87;;;18.62;30.70
80414;BME280;69758;52.580;13.068;2024-03-22T11:33:25;101145.25;;;18.25;30.75
80414;BME280;69758;52.580;13.068;2024-03-22T11:35:50;101150.78;;;18.67;31.12
80414;BME280;69758;52.580;13.068;2024-03-22T11:38:16;101155.01;;;18.67;31.41
80414;BME280;69758;52.580;13.068;2024-03-22T11:40:42;101148.19;;;18.78;31.50
80414;BME280;69758;52.580;13.068;2024-03-22T11:43:07;101145.39;;;18.93;31.57
80414;BME280;69758;52.580;13.068;2024-03-22T11:45:32;101145.39;;;18.48;32.09
80414;BME280;69758;52.580;13.068;2024-03-22T11:48:01;101140.21;;;18.16;32.66
80414;BME280;69758;52.580;13.068;2024-03-22T11:50:25;101136.76;;;18.24;32.68
80414;BME280;69758;52.580;13.068;2024-03-22T12:07:59;101112.19;;;18.18;33.99
80414;BME280;69758;52.580;13.068;2024-03-22T12:17:26;101096.13;;;18.29;34.31
80414;BME280;69758;52.580;13.068;2024-03-22T12:34:34;101077.89;;;18.44;34.68
80414;BME280;69758;52.580;13.068;2024-03-22T12:39:04;101075.98;;;18.41;34.87
80414;BME280;69758;52.580;13.068;2024-03-22T13:10:42;101028.34;;;18.09;35.49
80414;BME280;69758;52.580;13.068;2024-03-22T13:16:21;101013.64;;;18.16;35.51
80414;BME280;69758;52.580;13.068;2024-03-22T13:20:41;101017.89;;;18.21;35.40
80414;BME280;69758;52.580;13.068;2024-03-22T13:22:38;101007.63;;;17.88;35.44
80414;BME280;69758;52.580;13.068;2024-03-22T13:25:22;101009.11;;;17.87;35.45
80414;BME280;69758;52.580;13.068;2024-03-22T13:37:05;100997.96;;;17.90;35.23
80414;BME280;69758;52.580;13.068;2024-03-22T13:39:35;100992.29;;;17.63;35.36
80414;BME280;69758;52.580;13.068;2024-03-22T13:42:15;100983.78;;;17.82;35.62
80414;BME280;69758;52.580;13.068;2024-03-22T13:44:43;100979.89;;;18.27;35.47
80414;BME280;69758;52.580;13.068;2024-03-22T13:46:55;100978.38;;;17.93;35.30
80414;BME280;69758;52.580;13.068;2024-03-22T13:52:03;100970.63;;;17.72;35.01
80414;BME280;69758;52.580;13.068;2024-03-22T13:54:29;100971.59;;;18.08;34.94